This is the latest recevied weather packets stored in our database for station/object KD5UIG. If no packets are shown the sender has not sent any weather packets the latest 10 day(s).
| Time | Temp. | Humidity | Pressure | Rain* | Wind** | Luminosity | Snow |
|---|---|---|---|---|---|---|---|
| 1777893365 | 16.11° C | 74% | 1012.1 hPa | 0 mm | - | 0 W/m² | - |
| 1777893057 | 16.67° C | 73% | 1012.1 hPa | 0 mm | - | 0 W/m² | - |
| 1777892459 | 16.67° C | 73% | 1012.3 hPa | 0 mm | - | 0 W/m² | - |
| 1777892155 | 16.67° C | 73% | 1012.2 hPa | 0 mm | - | 0 W/m² | - |
| 1777891854 | 16.67° C | 72% | 1012.2 hPa | 0 mm | - | 0 W/m² | - |
| 1777891253 | 16.67° C | 72% | 1012.3 hPa | 0 mm | - | 0 W/m² | - |
| 1777890955 | 16.67° C | 72% | 1012.3 hPa | 0 mm | - | 0 W/m² | - |
| 1777889756 | 16.11° C | 72% | 1012.4 hPa | 0 mm | - | 0 W/m² | - |
| 1777887954 | 15.56° C | 71% | 1012.6 hPa | 0 mm | - | 0 W/m² | - |
| 1777883155 | 16.11° C | 68% | 1013.2 hPa | 0 mm | - | 0 W/m² | - |
| 1777880154 | 16.67° C | 66% | 1013.5 hPa | 0 mm | - | 0 W/m² | - |
| 1777878959 | 16.67° C | 65% | 1013.6 hPa | 0 mm | - | 0 W/m² | - |
| 1777877455 | 17.22° C | 64% | 1014 hPa | 0 mm | - | 0 W/m² | - |
| 1777876856 | 17.22° C | 64% | 1014.1 hPa | 0 mm | - | 0 W/m² | - |
| 1777876555 | 17.22° C | 63% | 1014.1 hPa | 0 mm | - | 0 W/m² | - |
| 1777876255 | 17.22° C | 63% | 1014.2 hPa | 0 mm | - | 0 W/m² | - |
| 1777873854 | 17.78° C | 62% | 1014.6 hPa | 0 mm | - | 0 W/m² | - |
| 1777873559 | 17.78° C | 61% | 1014.6 hPa | 0 mm | - | 0 W/m² | - |
| 1777872655 | 18.33° C | 61% | 1014.9 hPa | 0 mm | - | 0 W/m² | - |
| 1777872058 | 18.33° C | 60% | 1014.9 hPa | 0 mm | - | 0 W/m² | - |
| 1777871455 | 18.33° C | 60% | 1015 hPa | 0 mm | - | 0 W/m² | - |
| 1777870867 | 18.33° C | 60% | 1015.2 hPa | 0 mm | - | 0 W/m² | - |
| 1777870554 | 18.33° C | 59% | 1015.2 hPa | 0 mm | - | 0 W/m² | - |
| 1777869654 | 18.33° C | 60% | 1015.2 hPa | 0 mm | - | 0 W/m² | - |
| 1777869059 | 18.33° C | 59% | 1015.4 hPa | 0 mm | - | 0 W/m² | - |
* Rain latest hour (hover to see other rain measurements)
** Current wind speed in m/s (hover to see current wind gust speed)